sensor_id;sensor_type;location;lat;lon;timestamp;pressure;altitude;pressure_sealevel;temperature;humidity
74794;BME280;63320;50.768;6.724;2024-01-27T00:00:28;102111.38;;;3.50;nan
74794;BME280;63320;50.768;6.724;2024-01-27T00:02:53;102112.69;;;3.92;nan
74794;BME280;63320;50.768;6.724;2024-01-27T00:05:18;102118.66;;;3.82;nan
74794;BME280;63320;50.768;6.724;2024-01-27T00:07:43;102121.00;;;3.59;nan
74794;BME280;63320;50.768;6.724;2024-01-27T00:10:09;102116.47;;;3.41;nan
74794;BME280;63320;50.768;6.724;2024-01-27T00:12:34;102117.38;;;3.45;nan
74794;BME280;63320;50.768;6.724;2024-01-27T00:15:01;102113.03;;;3.45;nan
74794;BME280;63320;50.768;6.724;2024-01-27T00:17:26;102115.81;;;3.59;nan
74794;BME280;63320;50.768;6.724;2024-01-27T00:19:52;102111.06;;;3.26;nan
74794;BME280;63320;50.768;6.724;2024-01-27T00:22:17;102124.97;;;3.28;nan
74794;BME280;63320;50.768;6.724;2024-01-27T00:24:42;102114.59;;;3.31;nan
74794;BME280;63320;50.768;6.724;2024-01-27T00:27:08;102116.13;;;3.89;nan
74794;BME280;63320;50.768;6.724;2024-01-27T00:29:33;102108.31;;;3.91;nan
74794;BME280;63320;50.768;6.724;2024-01-27T00:32:00;102111.53;;;3.62;nan
74794;BME280;63320;50.768;6.724;2024-01-27T00:34:25;102113.66;;;3.24;nan
74794;BME280;63320;50.768;6.724;2024-01-27T00:36:51;102117.72;;;3.75;nan
74794;BME280;63320;50.768;6.724;2024-01-27T00:39:17;102125.72;;;3.92;nan
74794;BME280;63320;50.768;6.724;2024-01-27T00:41:43;102126.38;;;3.73;nan
74794;BME280;63320;50.768;6.724;2024-01-27T00:44:08;102131.72;;;3.88;nan
74794;BME280;63320;50.768;6.724;2024-01-27T00:46:34;102125.00;;;4.11;nan
74794;BME280;63320;50.768;6.724;2024-01-27T00:49:00;102135.91;;;3.75;nan
74794;BME280;63320;50.768;6.724;2024-01-27T00:51:26;102129.09;;;3.83;nan
74794;BME280;63320;50.768;6.724;2024-01-27T00:53:51;102136.78;;;3.73;nan
74794;BME280;63320;50.768;6.724;2024-01-27T00:56:16;102135.88;;;3.71;nan
74794;BME280;63320;50.768;6.724;2024-01-27T00:58:42;102137.03;;;3.99;nan
74794;BME280;63320;50.768;6.724;2024-01-27T01:01:07;102135.88;;;3.69;nan
74794;BME280;63320;50.768;6.724;2024-01-27T01:03:32;102130.88;;;3.87;nan
74794;BME280;63320;50.768;6.724;2024-01-27T01:05:59;102141.16;;;3.77;nan
74794;BME280;63320;50.768;6.724;2024-01-27T01:08:24;102137.50;;;3.59;nan
74794;BME280;63320;50.768;6.724;2024-01-27T01:10:50;102150.44;;;3.56;nan
74794;BME280;63320;50.768;6.724;2024-01-27T01:13:15;102143.66;;;3.68;nan
74794;BME280;63320;50.768;6.724;2024-01-27T01:15:40;102144.75;;;3.88;nan
74794;BME280;63320;50.768;6.724;2024-01-27T01:18:06;102140.59;;;3.28;nan
74794;BME280;63320;50.768;6.724;2024-01-27T01:20:31;102142.44;;;3.40;nan
74794;BME280;63320;50.768;6.724;2024-01-27T01:22:58;102143.38;;;3.42;nan
74794;BME280;63320;50.768;6.724;2024-01-27T01:25:23;102142.28;;;3.26;nan
74794;BME280;63320;50.768;6.724;2024-01-27T01:27:49;102142.31;;;3.27;nan
74794;BME280;63320;50.768;6.724;2024-01-27T01:30:14;102141.13;;;3.72;nan
74794;BME280;63320;50.768;6.724;2024-01-27T01:32:39;102144.19;;;3.39;nan
74794;BME280;63320;50.768;6.724;2024-01-27T01:35:05;102147.81;;;3.53;nan
74794;BME280;63320;50.768;6.724;2024-01-27T01:37:31;102149.91;;;3.12;nan
74794;BME280;63320;50.768;6.724;2024-01-27T01:39:57;102152.56;;;3.17;nan
74794;BME280;63320;50.768;6.724;2024-01-27T01:42:23;102152.91;;;3.44;nan
74794;BME280;63320;50.768;6.724;2024-01-27T01:44:48;102157.06;;;3.28;nan
74794;BME280;63320;50.768;6.724;2024-01-27T01:47:13;102157.91;;;3.29;nan
74794;BME280;63320;50.768;6.724;2024-01-27T01:49:39;102154.47;;;3.30;nan
74794;BME280;63320;50.768;6.724;2024-01-27T01:52:05;102157.97;;;3.32;nan
74794;BME280;63320;50.768;6.724;2024-01-27T01:54:31;102155.50;;;3.44;nan
74794;BME280;63320;50.768;6.724;2024-01-27T01:56:58;102156.09;;;3.22;nan
74794;BME280;63320;50.768;6.724;2024-01-27T01:59:23;102153.97;;;2.92;nan
74794;BME280;63320;50.768;6.724;2024-01-27T02:01:49;102148.69;;;2.87;nan
74794;BME280;63320;50.768;6.724;2024-01-27T02:04:14;102145.09;;;2.77;nan
74794;BME280;63320;50.768;6.724;2024-01-27T02:06:39;102147.16;;;3.01;nan
74794;BME280;63320;50.768;6.724;2024-01-27T02:09:05;102147.13;;;3.00;nan
74794;BME280;63320;50.768;6.724;2024-01-27T02:11:30;102142.31;;;3.29;nan
74794;BME280;63320;50.768;6.724;2024-01-27T02:13:57;102149.25;;;3.28;nan
74794;BME280;63320;50.768;6.724;2024-01-27T02:16:22;102151.06;;;3.34;nan
74794;BME280;63320;50.768;6.724;2024-01-27T02:18:47;102146.25;;;2.98;nan
74794;BME280;63320;50.768;6.724;2024-01-27T02:21:13;102153.47;;;3.19;nan
74794;BME280;63320;50.768;6.724;2024-01-27T02:23:38;102145.88;;;3.35;nan
74794;BME280;63320;50.768;6.724;2024-01-27T02:26:05;102146.03;;;2.82;nan
74794;BME280;63320;50.768;6.724;2024-01-27T02:28:30;102148.78;;;2.93;nan
74794;BME280;63320;50.768;6.724;2024-01-27T02:30:56;102151.78;;;3.22;nan
74794;BME280;63320;50.768;6.724;2024-01-27T02:33:21;102153.69;;;2.75;nan
74794;BME280;63320;50.768;6.724;2024-01-27T02:35:46;102151.38;;;2.93;nan
74794;BME280;63320;50.768;6.724;2024-01-27T02:38:12;102151.44;;;2.96;nan
74794;BME280;63320;50.768;6.724;2024-01-27T02:40:37;102145.25;;;2.91;nan
74794;BME280;63320;50.768;6.724;2024-01-27T02:43:04;102156.84;;;3.13;nan
74794;BME280;63320;50.768;6.724;2024-01-27T02:45:29;102154.31;;;3.18;nan
74794;BME280;63320;50.768;6.724;2024-01-27T02:47:54;102150.94;;;3.25;nan
74794;BME280;63320;50.768;6.724;2024-01-27T02:50:20;102154.06;;;2.99;nan
74794;BME280;63320;50.768;6.724;2024-01-27T02:52:45;102153.97;;;2.95;nan
74794;BME280;63320;50.768;6.724;2024-01-27T02:55:10;102150.22;;;2.73;nan
74794;BME280;63320;50.768;6.724;2024-01-27T02:57:36;102146.44;;;3.11;nan
74794;BME280;63320;50.768;6.724;2024-01-27T03:00:03;102150.78;;;3.13;nan
74794;BME280;63320;50.768;6.724;2024-01-27T03:02:28;102158.00;;;3.35;nan
74794;BME280;63320;50.768;6.724;2024-01-27T03:04:53;102152.66;;;3.26;nan
74794;BME280;63320;50.768;6.724;2024-01-27T03:07:19;102167.72;;;3.50;nan
74794;BME280;63320;50.768;6.724;2024-01-27T03:09:44;102167.81;;;3.57;nan
74794;BME280;63320;50.768;6.724;2024-01-27T03:12:09;102166.41;;;3.16;nan
74794;BME280;63320;50.768;6.724;2024-01-27T03:14:35;102163.97;;;3.28;nan
74794;BME280;63320;50.768;6.724;2024-01-27T03:17:02;102161.13;;;3.08;nan
74794;BME280;63320;50.768;6.724;2024-01-27T03:19:27;102170.25;;;2.81;nan
74794;BME280;63320;50.768;6.724;2024-01-27T03:21:52;102164.00;;;3.29;nan
74794;BME280;63320;50.768;6.724;2024-01-27T03:24:18;102155.97;;;3.13;nan
74794;BME280;63320;50.768;6.724;2024-01-27T03:26:43;102169.09;;;3.22;nan
74794;BME280;63320;50.768;6.724;2024-01-27T03:29:08;102165.00;;;2.78;nan
74794;BME280;63320;50.768;6.724;2024-01-27T03:31:34;102163.53;;;2.96;nan
74794;BME280;63320;50.768;6.724;2024-01-27T03:34:01;102165.16;;;2.88;nan
74794;BME280;63320;50.768;6.724;2024-01-27T03:36:27;102164.63;;;2.55;nan
74794;BME280;63320;50.768;6.724;2024-01-27T03:38:53;102164.69;;;2.57;nan
74794;BME280;63320;50.768;6.724;2024-01-27T03:41:18;102161.53;;;2.76;nan
74794;BME280;63320;50.768;6.724;2024-01-27T03:43:44;102165.41;;;3.06;nan
74794;BME280;63320;50.768;6.724;2024-01-27T03:46:09;102165.72;;;3.27;nan
74794;BME280;63320;50.768;6.724;2024-01-27T03:48:34;102171.63;;;3.17;nan
74794;BME280;63320;50.768;6.724;2024-01-27T03:51:01;102170.81;;;3.21;nan
74794;BME280;63320;50.768;6.724;2024-01-27T03:53:26;102168.41;;;2.74;nan
74794;BME280;63320;50.768;6.724;2024-01-27T03:55:52;102171.94;;;2.79;nan
74794;BME280;63320;50.768;6.724;2024-01-27T03:58:17;102170.22;;;2.78;nan
74794;BME280;63320;50.768;6.724;2024-01-27T04:00:43;102172.91;;;2.86;nan
74794;BME280;63320;50.768;6.724;2024-01-27T04:03:08;102172.28;;;3.02;nan
74794;BME280;63320;50.768;6.724;2024-01-27T04:05:33;102175.13;;;3.18;nan
74794;BME280;63320;50.768;6.724;2024-01-27T04:08:00;102184.78;;;3.28;nan
74794;BME280;63320;50.768;6.724;2024-01-27T04:10:25;102183.84;;;3.23;nan
74794;BME280;63320;50.768;6.724;2024-01-27T04:12:51;102177.00;;;3.31;nan
74794;BME280;63320;50.768;6.724;2024-01-27T04:15:16;102181.19;;;3.21;nan
74794;BME280;63320;50.768;6.724;2024-01-27T04:17:42;102184.63;;;3.17;nan
74794;BME280;63320;50.768;6.724;2024-01-27T04:20:08;102182.97;;;3.24;nan
74794;BME280;63320;50.768;6.724;2024-01-27T04:22:34;102184.38;;;3.00;nan
74794;BME280;63320;50.768;6.724;2024-01-27T04:25:01;102190.50;;;3.04;nan
74794;BME280;63320;50.768;6.724;2024-01-27T04:27:27;102189.84;;;3.19;nan
74794;BME280;63320;50.768;6.724;2024-01-27T04:29:52;102188.25;;;3.27;nan
74794;BME280;63320;50.768;6.724;2024-01-27T04:32:18;102191.66;;;3.26;nan
74794;BME280;63320;50.768;6.724;2024-01-27T04:34:43;102195.63;;;2.99;nan
74794;BME280;63320;50.768;6.724;2024-01-27T04:37:08;102195.63;;;2.98;nan
74794;BME280;63320;50.768;6.724;2024-01-27T04:39:34;102207.09;;;3.12;nan
74794;BME280;63320;50.768;6.724;2024-01-27T04:42:00;102202.41;;;2.88;nan
74794;BME280;63320;50.768;6.724;2024-01-27T04:44:26;102207.19;;;2.64;nan
74794;BME280;63320;50.768;6.724;2024-01-27T04:46:52;102201.41;;;2.80;nan
74794;BME280;63320;50.768;6.724;2024-01-27T04:49:17;102196.88;;;2.67;nan
74794;BME280;63320;50.768;6.724;2024-01-27T04:51:42;102202.56;;;3.00;nan
74794;BME280;63320;50.768;6.724;2024-01-27T04:54:08;102190.22;;;2.84;nan
74794;BME280;63320;50.768;6.724;2024-01-27T04:56:33;102193.91;;;3.00;nan
74794;BME280;63320;50.768;6.724;2024-01-27T04:59:00;102198.88;;;2.86;nan
74794;BME280;63320;50.768;6.724;2024-01-27T05:01:25;102199.09;;;2.98;nan
74794;BME280;63320;50.768;6.724;2024-01-27T05:03:51;102206.25;;;3.16;nan
74794;BME280;63320;50.768;6.724;2024-01-27T05:06:16;102202.13;;;3.29;nan
74794;BME280;63320;50.768;6.724;2024-01-27T05:08:41;102202.91;;;3.22;nan
74794;BME280;63320;50.768;6.724;2024-01-27T05:11:07;102193.22;;;3.11;nan
74794;BME280;63320;50.768;6.724;2024-01-27T05:13:32;102192.47;;;3.20;nan
74794;BME280;63320;50.768;6.724;2024-01-27T05:15:59;102190.78;;;3.25;nan
74794;BME280;63320;50.768;6.724;2024-01-27T05:18:24;102188.84;;;3.09;nan
74794;BME280;63320;50.768;6.724;2024-01-27T05:20:49;102184.63;;;3.17;nan
74794;BME280;63320;50.768;6.724;2024-01-27T05:23:15;102192.44;;;3.17;nan
74794;BME280;63320;50.768;6.724;2024-01-27T05:25:40;102197.28;;;2.94;nan
74794;BME280;63320;50.768;6.724;2024-01-27T05:28:06;102186.84;;;2.91;nan
74794;BME280;63320;50.768;6.724;2024-01-27T05:30:31;102191.44;;;3.07;nan
74794;BME280;63320;50.768;6.724;2024-01-27T05:32:58;102184.78;;;3.26;nan
74794;BME280;63320;50.768;6.724;2024-01-27T05:35:23;102195.91;;;3.18;nan
74794;BME280;63320;50.768;6.724;2024-01-27T05:37:48;102194.38;;;2.74;nan
74794;BME280;63320;50.768;6.724;2024-01-27T05:40:14;102195.75;;;3.07;nan
74794;BME280;63320;50.768;6.724;2024-01-27T05:42:39;102191.44;;;3.10;nan
74794;BME280;63320;50.768;6.724;2024-01-27T05:45:06;102191.31;;;3.00;nan
74794;BME280;63320;50.768;6.724;2024-01-27T05:47:31;102197.38;;;3.00;nan
74794;BME280;63320;50.768;6.724;2024-01-27T05:49:59;102186.19;;;3.06;nan
74794;BME280;63320;50.768;6.724;2024-01-27T05:52:24;102189.69;;;3.08;nan
74794;BME280;63320;50.768;6.724;2024-01-27T05:54:49;102191.38;;;3.03;nan
74794;BME280;63320;50.768;6.724;2024-01-27T05:57:15;102175.63;;;2.95;nan
74794;BME280;63320;50.768;6.724;2024-01-27T05:59:40;102180.59;;;2.78;nan
74794;BME280;63320;50.768;6.724;2024-01-27T06:02:05;102185.56;;;2.65;nan
74794;BME280;63320;50.768;6.724;2024-01-27T06:04:31;102182.31;;;2.76;nan
74794;BME280;63320;50.768;6.724;2024-01-27T06:06:57;102192.31;;;2.52;nan
74794;BME280;63320;50.768;6.724;2024-01-27T06:09:23;102178.06;;;2.83;nan
74794;BME280;63320;50.768;6.724;2024-01-27T06:11:48;102183.28;;;2.86;nan
74794;BME280;63320;50.768;6.724;2024-01-27T06:14:13;102193.66;;;2.84;nan
74794;BME280;63320;50.768;6.724;2024-01-27T06:16:39;102190.28;;;2.90;nan
74794;BME280;63320;50.768;6.724;2024-01-27T06:19:04;102191.31;;;3.00;nan
74794;BME280;63320;50.768;6.724;2024-01-27T06:21:29;102194.75;;;2.99;nan
74794;BME280;63320;50.768;6.724;2024-01-27T06:23:56;102196.34;;;2.89;nan
74794;BME280;63320;50.768;6.724;2024-01-27T06:26:21;102190.22;;;2.84;nan
74794;BME280;63320;50.768;6.724;2024-01-27T06:28:47;102193.34;;;2.62;nan
74794;BME280;63320;50.768;6.724;2024-01-27T06:31:12;102193.56;;;2.77;nan
74794;BME280;63320;50.768;6.724;2024-01-27T06:33:37;102197.53;;;2.55;nan
74794;BME280;63320;50.768;6.724;2024-01-27T06:36:03;102193.50;;;2.72;nan
74794;BME280;63320;50.768;6.724;2024-01-27T06:38:29;102196.78;;;2.62;nan
74794;BME280;63320;50.768;6.724;2024-01-27T06:40:55;102200.53;;;2.81;nan
74794;BME280;63320;50.768;6.724;2024-01-27T06:43:21;102208.09;;;2.66;nan
74794;BME280;63320;50.768;6.724;2024-01-27T06:45:46;102197.00;;;2.76;nan
74794;BME280;63320;50.768;6.724;2024-01-27T06:48:11;102197.00;;;2.76;nan
74794;BME280;63320;50.768;6.724;2024-01-27T06:50:37;102204.13;;;2.89;nan
74794;BME280;63320;50.768;6.724;2024-01-27T06:53:02;102200.25;;;2.63;nan
74794;BME280;63320;50.768;6.724;2024-01-27T06:55:28;102202.06;;;2.67;nan
74794;BME280;63320;50.768;6.724;2024-01-27T06:57:55;102204.66;;;2.67;nan
74794;BME280;63320;50.768;6.724;2024-01-27T07:00:20;102201.13;;;2.62;nan
74794;BME280;63320;50.768;6.724;2024-01-27T07:02:46;102214.81;;;2.51;nan
74794;BME280;63320;50.768;6.724;2024-01-27T07:05:11;102214.03;;;2.58;nan
74794;BME280;63320;50.768;6.724;2024-01-27T07:07:36;102215.88;;;2.64;nan
74794;BME280;63320;50.768;6.724;2024-01-27T07:10:02;102217.44;;;2.54;nan
74794;BME280;63320;50.768;6.724;2024-01-27T07:12:28;102208.13;;;2.67;nan
74794;BME280;63320;50.768;6.724;2024-01-27T07:14:54;102215.94;;;2.69;nan
74794;BME280;63320;50.768;6.724;2024-01-27T07:17:20;102221.13;;;2.69;nan
74794;BME280;63320;50.768;6.724;2024-01-27T07:19:45;102212.59;;;2.76;nan
74794;BME280;63320;50.768;6.724;2024-01-27T07:22:11;102216.72;;;2.62;nan
74794;BME280;63320;50.768;6.724;2024-01-27T07:24:36;102221.91;;;2.63;nan
74794;BME280;63320;50.768;6.724;2024-01-27T07:27:01;102221.84;;;2.58;nan
74794;BME280;63320;50.768;6.724;2024-01-27T07:29:27;102226.22;;;2.61;nan
74794;BME280;63320;50.768;6.724;2024-01-27T07:31:54;102222.78;;;2.64;nan
74794;BME280;63320;50.768;6.724;2024-01-27T07:34:19;102230.41;;;2.54;nan
74794;BME280;63320;50.768;6.724;2024-01-27T07:36:45;102234.03;;;2.63;nan
74794;BME280;63320;50.768;6.724;2024-01-27T07:39:10;102241.06;;;2.70;nan
74794;BME280;63320;50.768;6.724;2024-01-27T07:41:35;102236.38;;;2.47;nan
74794;BME280;63320;50.768;6.724;2024-01-27T07:44:07;102250.94;;;2.41;nan
74794;BME280;63320;50.768;6.724;2024-01-27T07:46:32;102248.00;;;2.71;nan
74794;BME280;63320;50.768;6.724;2024-01-27T07:48:59;102247.44;;;2.39;nan
74794;BME280;63320;50.768;6.724;2024-01-27T07:51:24;102250.47;;;2.62;nan
74794;BME280;63320;50.768;6.724;2024-01-27T07:53:49;102250.06;;;2.40;nan
74794;BME280;63320;50.768;6.724;2024-01-27T07:56:15;102263.31;;;2.54;nan
74794;BME280;63320;50.768;6.724;2024-01-27T07:58:40;102263.13;;;2.45;nan
74794;BME280;63320;50.768;6.724;2024-01-27T08:01:05;102264.84;;;2.43;nan
74794;BME280;63320;50.768;6.724;2024-01-27T08:03:31;102271.06;;;2.52;nan
74794;BME280;63320;50.768;6.724;2024-01-27T08:05:57;102276.69;;;2.30;nan
74794;BME280;63320;50.768;6.724;2024-01-27T08:08:23;102272.38;;;2.29;nan
74794;BME280;63320;50.768;6.724;2024-01-27T08:10:48;102280.41;;;2.41;nan
74794;BME280;63320;50.768;6.724;2024-01-27T08:13:13;102278.00;;;2.52;nan
74794;BME280;63320;50.768;6.724;2024-01-27T08:15:39;102274.19;;;2.34;nan
74794;BME280;63320;50.768;6.724;2024-01-27T08:18:04;102278.13;;;2.59;nan
74794;BME280;63320;50.768;6.724;2024-01-27T08:20:29;102276.34;;;2.57;nan
74794;BME280;63320;50.768;6.724;2024-01-27T08:22:56;102280.09;;;2.74;nan
74794;BME280;63320;50.768;6.724;2024-01-27T08:25:21;102292.13;;;2.69;nan
74794;BME280;63320;50.768;6.724;2024-01-27T08:27:47;102292.94;;;2.65;nan
74794;BME280;63320;50.768;6.724;2024-01-27T08:30:13;102283.66;;;2.81;nan
74794;BME280;63320;50.768;6.724;2024-01-27T08:32:38;102287.38;;;2.95;nan
74794;BME280;63320;50.768;6.724;2024-01-27T08:35:04;102290.03;;;2.98;nan
74794;BME280;63320;50.768;6.724;2024-01-27T08:37:30;102282.31;;;3.01;nan
74794;BME280;63320;50.768;6.724;2024-01-27T08:39:57;102286.81;;;3.13;nan
74794;BME280;63320;50.768;6.724;2024-01-27T08:42:22;102293.66;;;3.08;nan
74794;BME280;63320;50.768;6.724;2024-01-27T08:44:47;102290.44;;;3.24;nan
74794;BME280;63320;50.768;6.724;2024-01-27T08:47:12;102275.47;;;3.06;nan
74794;BME280;63320;50.768;6.724;2024-01-27T08:49:38;102258.22;;;3.15;nan
74794;BME280;63320;50.768;6.724;2024-01-27T08:52:03;102253.97;;;3.20;nan
74794;BME280;63320;50.768;6.724;2024-01-27T08:54:29;102241.91;;;3.23;nan
74794;BME280;63320;50.768;6.724;2024-01-27T08:56:55;102252.41;;;3.31;nan
74794;BME280;63320;50.768;6.724;2024-01-27T08:59:21;102256.72;;;3.27;nan
74794;BME280;63320;50.768;6.724;2024-01-27T09:01:46;102256.66;;;3.26;nan
74794;BME280;63320;50.768;6.724;2024-01-27T09:04:11;102247.09;;;3.23;nan
74794;BME280;63320;50.768;6.724;2024-01-27T09:06:37;102247.03;;;3.20;nan
74794;BME280;63320;50.768;6.724;2024-01-27T09:09:02;102239.41;;;3.31;nan
74794;BME280;63320;50.768;6.724;2024-01-27T09:11:28;102237.84;;;3.42;nan
74794;BME280;63320;50.768;6.724;2024-01-27T09:13:55;102249.19;;;3.47;nan
74794;BME280;63320;50.768;6.724;2024-01-27T09:16:20;102252.63;;;3.46;nan
74794;BME280;63320;50.768;6.724;2024-01-27T09:18:45;102252.84;;;3.61;nan
74794;BME280;63320;50.768;6.724;2024-01-27T09:21:11;102246.88;;;3.70;nan
74794;BME280;63320;50.768;6.724;2024-01-27T09:23:36;102244.91;;;3.52;nan
74794;BME280;63320;50.768;6.724;2024-01-27T09:26:01;102244.13;;;3.58;nan
74794;BME280;63320;50.768;6.724;2024-01-27T09:28:27;102244.19;;;3.66;nan
74794;BME280;63320;50.768;6.724;2024-01-27T09:30:53;102251.31;;;3.77;nan
74794;BME280;63320;50.768;6.724;2024-01-27T09:33:19;102254.78;;;3.79;nan
74794;BME280;63320;50.768;6.724;2024-01-27T09:35:44;102252.19;;;3.78;nan
74794;BME280;63320;50.768;6.724;2024-01-27T09:38:10;102241.03;;;3.88;nan
74794;BME280;63320;50.768;6.724;2024-01-27T09:40:35;102241.91;;;3.88;nan
74794;BME280;63320;50.768;6.724;2024-01-27T09:43:00;102240.06;;;3.81;nan
74794;BME280;63320;50.768;6.724;2024-01-27T09:45:26;102244.56;;;3.93;nan
74794;BME280;63320;50.768;6.724;2024-01-27T09:47:53;102261.91;;;3.94;nan
74794;BME280;63320;50.768;6.724;2024-01-27T09:50:21;102254.91;;;3.88;nan
74794;BME280;63320;50.768;6.724;2024-01-27T09:52:48;102260.00;;;3.78;nan
74794;BME280;63320;50.768;6.724;2024-01-27T09:55:13;102269.69;;;3.91;nan
74794;BME280;63320;50.768;6.724;2024-01-27T09:57:39;102270.53;;;3.90;nan
74794;BME280;63320;50.768;6.724;2024-01-27T10:00:09;102270.72;;;4.05;nan
74794;BME280;63320;50.768;6.724;2024-01-27T10:02:36;102264.56;;;3.99;nan
74794;BME280;63320;50.768;6.724;2024-01-27T10:05:05;102260.25;;;4.01;nan
74794;BME280;63320;50.768;6.724;2024-01-27T10:07:32;102257.00;;;4.17;nan
74794;BME280;63320;50.768;6.724;2024-01-27T10:09:57;102257.91;;;4.24;nan
74794;BME280;63320;50.768;6.724;2024-01-27T10:12:24;102256.19;;;4.26;nan
74794;BME280;63320;50.768;6.724;2024-01-27T10:14:50;102253.69;;;4.35;nan
74794;BME280;63320;50.768;6.724;2024-01-27T10:17:20;102263.44;;;4.54;nan
74794;BME280;63320;50.768;6.724;2024-01-27T10:19:46;102262.50;;;4.49;nan
74794;BME280;63320;50.768;6.724;2024-01-27T10:22:12;102276.44;;;4.53;nan
74794;BME280;63320;50.768;6.724;2024-01-27T10:24:38;102277.38;;;4.59;nan
74794;BME280;63320;50.768;6.724;2024-01-27T10:27:04;102267.00;;;4.64;nan
74794;BME280;63320;50.768;6.724;2024-01-27T10:29:29;102256.66;;;4.73;nan
74794;BME280;63320;50.768;6.724;2024-01-27T10:31:55;102250.63;;;4.77;nan
74794;BME280;63320;50.768;6.724;2024-01-27T10:34:20;102249.78;;;4.83;nan
74794;BME280;63320;50.768;6.724;2024-01-27T10:36:46;102246.38;;;4.91;nan
74794;BME280;63320;50.768;6.724;2024-01-27T10:39:17;102247.34;;;5.03;nan
74794;BME280;63320;50.768;6.724;2024-01-27T10:41:44;102249.13;;;5.11;nan
74794;BME280;63320;50.768;6.724;2024-01-27T10:44:13;102249.13;;;5.08;nan
74794;BME280;63320;50.768;6.724;2024-01-27T10:46:38;102266.56;;;5.18;nan
74794;BME280;63320;50.768;6.724;2024-01-27T10:49:05;102264.00;;;5.25;nan
74794;BME280;63320;50.768;6.724;2024-01-27T10:51:33;102264.91;;;5.31;nan
74794;BME280;63320;50.768;6.724;2024-01-27T10:54:02;102260.59;;;5.35;nan
74794;BME280;63320;50.768;6.724;2024-01-27T10:56:29;102251.91;;;5.42;nan
74794;BME280;63320;50.768;6.724;2024-01-27T10:58:55;102245.81;;;5.37;nan
74794;BME280;63320;50.768;6.724;2024-01-27T11:01:22;102248.50;;;5.48;nan
74794;BME280;63320;50.768;6.724;2024-01-27T11:03:48;102259.06;;;5.74;nan
74794;BME280;63320;50.768;6.724;2024-01-27T11:06:14;102247.00;;;5.95;nan
74794;BME280;63320;50.768;6.724;2024-01-27T11:08:40;102237.31;;;5.73;nan
74794;BME280;63320;50.768;6.724;2024-01-27T11:11:06;102231.19;;;5.66;nan
74794;BME280;63320;50.768;6.724;2024-01-27T11:13:33;102239.94;;;5.79;nan
74794;BME280;63320;50.768;6.724;2024-01-27T11:15:59;102246.88;;;5.76;nan
74794;BME280;63320;50.768;6.724;2024-01-27T11:18:25;102245.16;;;5.81;nan
74794;BME280;63320;50.768;6.724;2024-01-27T11:20:52;102261.72;;;5.86;nan
74794;BME280;63320;50.768;6.724;2024-01-27T11:23:18;102251.25;;;5.81;nan
74794;BME280;63320;50.768;6.724;2024-01-27T11:25:43;102242.56;;;5.78;nan
74794;BME280;63320;50.768;6.724;2024-01-27T11:28:13;102252.13;;;5.80;nan
74794;BME280;63320;50.768;6.724;2024-01-27T11:30:44;102261.78;;;5.95;nan
74794;BME280;63320;50.768;6.724;2024-01-27T11:33:10;102257.44;;;5.92;nan
74794;BME280;63320;50.768;6.724;2024-01-27T11:35:36;102267.91;;;6.00;nan
74794;BME280;63320;50.768;6.724;2024-01-27T11:38:01;102271.38;;;6.02;nan
74794;BME280;63320;50.768;6.724;2024-01-27T11:40:26;102272.28;;;6.03;nan
74794;BME280;63320;50.768;6.724;2024-01-27T11:42:55;102274.91;;;6.10;nan
74794;BME280;63320;50.768;6.724;2024-01-27T11:45:21;102260.94;;;6.02;nan
74794;BME280;63320;50.768;6.724;2024-01-27T11:47:47;102262.72;;;6.08;nan
74794;BME280;63320;50.768;6.724;2024-01-27T11:50:13;102273.97;;;5.96;nan
74794;BME280;63320;50.768;6.724;2024-01-27T11:52:38;102275.72;;;5.97;nan
74794;BME280;63320;50.768;6.724;2024-01-27T11:55:04;102268.78;;;6.07;nan
74794;BME280;63320;50.768;6.724;2024-01-27T11:57:29;102276.66;;;6.08;nan
74794;BME280;63320;50.768;6.724;2024-01-27T11:59:55;102280.13;;;6.03;nan
74794;BME280;63320;50.768;6.724;2024-01-27T12:02:21;102273.06;;;5.89;nan
74794;BME280;63320;50.768;6.724;2024-01-27T12:04:48;102265.19;;;5.85;nan
74794;BME280;63320;50.768;6.724;2024-01-27T12:07:14;102259.09;;;5.84;nan
74794;BME280;63320;50.768;6.724;2024-01-27T12:09:39;102261.81;;;5.98;nan
74794;BME280;63320;50.768;6.724;2024-01-27T12:12:05;102250.53;;;6.08;nan
74794;BME280;63320;50.768;6.724;2024-01-27T12:14:38;102257.53;;;6.31;nan
74794;BME280;63320;50.768;6.724;2024-01-27T12:17:03;102250.56;;;6.25;nan
74794;BME280;63320;50.768;6.724;2024-01-27T12:19:28;102248.84;;;6.35;nan
74794;BME280;63320;50.768;6.724;2024-01-27T12:21:55;102247.13;;;6.43;nan
74794;BME280;63320;50.768;6.724;2024-01-27T12:24:20;102254.91;;;6.32;nan
74794;BME280;63320;50.768;6.724;2024-01-27T12:26:46;102238.38;;;6.30;nan
74794;BME280;63320;50.768;6.724;2024-01-27T12:29:11;102242.75;;;6.37;nan
74794;BME280;63320;50.768;6.724;2024-01-27T12:31:37;102236.66;;;6.46;nan
74794;BME280;63320;50.768;6.724;2024-01-27T12:34:02;102234.06;;;6.61;nan
74794;BME280;63320;50.768;6.724;2024-01-27T12:36:28;102227.97;;;6.59;nan
74794;BME280;63320;50.768;6.724;2024-01-27T12:38:57;102228.84;;;6.61;nan
74794;BME280;63320;50.768;6.724;2024-01-27T12:41:22;102227.09;;;6.56;nan
74794;BME280;63320;50.768;6.724;2024-01-27T12:43:47;102221.84;;;6.51;nan
74794;BME280;63320;50.768;6.724;2024-01-27T12:46:13;102223.59;;;6.52;nan
74794;BME280;63320;50.768;6.724;2024-01-27T12:48:38;102226.19;;;6.47;nan
74794;BME280;63320;50.768;6.724;2024-01-27T12:51:04;102219.22;;;6.42;nan
74794;BME280;63320;50.768;6.724;2024-01-27T12:53:29;102232.31;;;6.45;nan
74794;BME280;63320;50.768;6.724;2024-01-27T12:55:56;102221.84;;;6.36;nan
74794;BME280;63320;50.768;6.724;2024-01-27T12:58:21;102219.22;;;6.37;nan
74794;BME280;63320;50.768;6.724;2024-01-27T13:00:47;102223.59;;;6.47;nan
74794;BME280;63320;50.768;6.724;2024-01-27T13:03:13;102221.00;;;6.61;nan
74794;BME280;63320;50.768;6.724;2024-01-27T13:05:38;102216.63;;;6.49;nan
74794;BME280;63320;50.768;6.724;2024-01-27T13:08:04;102222.75;;;6.53;nan
74794;BME280;63320;50.768;6.724;2024-01-27T13:10:30;102216.63;;;6.42;nan
74794;BME280;63320;50.768;6.724;2024-01-27T13:12:56;102214.03;;;6.43;nan